createdAt,value
2023-02-03T00:01:41.112Z,100.00
2023-02-03T00:05:04.296Z,100.00
2023-02-03T00:08:32.117Z,100.00
2023-02-03T00:11:43.868Z,100.00
2023-02-03T00:15:11.946Z,100.00
2023-02-03T00:18:39.715Z,100.00
2023-02-03T00:21:48.169Z,100.00
2023-02-03T00:25:15.955Z,100.00
2023-02-03T00:28:06.837Z,100.00
2023-02-03T00:31:15.745Z,100.00
2023-02-03T00:34:43.719Z,100.00
2023-02-03T00:38:11.471Z,100.00
2023-02-03T00:41:19.438Z,100.00
2023-02-03T00:44:47.483Z,100.00
2023-02-03T00:47:56.143Z,100.00
2023-02-03T00:51:08.943Z,100.00
2023-02-03T00:54:36.895Z,100.00
2023-02-03T00:57:25.176Z,100.00
2023-02-03T01:00:29.015Z,100.00
2023-02-03T01:03:41.016Z,100.00
2023-02-03T01:07:08.859Z,100.00
2023-02-03T01:10:18.597Z,100.00
2023-02-03T01:13:46.720Z,100.00
2023-02-03T01:17:14.535Z,100.00
2023-02-03T01:20:42.255Z,100.00
2023-02-03T01:23:52.317Z,100.00
2023-02-03T01:27:20.490Z,100.00
2023-02-03T01:30:48.312Z,100.00
2023-02-03T01:34:03.691Z,100.00
2023-02-03T01:37:31.759Z,100.00
2023-02-03T01:40:47.501Z,100.00
2023-02-03T01:44:10.763Z,100.00
2023-02-03T01:47:26.215Z,100.00
2023-02-03T01:50:53.972Z,100.00
2023-02-03T01:54:06.355Z,100.00
2023-02-03T01:57:14.300Z,100.00
2023-02-03T02:00:41.963Z,100.00
2023-02-03T02:04:09.823Z,100.00
2023-02-03T02:06:59.256Z,100.00
2023-02-03T02:10:27.741Z,100.00
2023-02-03T02:13:55.172Z,100.00
2023-02-03T02:17:23.076Z,100.00
2023-02-03T02:20:31.348Z,100.00
2023-02-03T02:23:59.172Z,100.00
2023-02-03T02:27:27.005Z,100.00
2023-02-03T02:30:37.189Z,100.00
2023-02-03T02:33:45.871Z,100.00
2023-02-03T02:36:57.402Z,100.00
2023-02-03T02:40:06.582Z,100.00
2023-02-03T02:43:34.385Z,100.00
2023-02-03T02:47:02.265Z,100.00
2023-02-03T02:50:10.921Z,100.00
2023-02-03T02:53:19.597Z,100.00
2023-02-03T02:56:27.884Z,100.00
2023-02-03T02:59:35.810Z,100.00
2023-02-03T03:02:45.904Z,100.00
2023-02-03T03:06:13.725Z,100.00
2023-02-03T03:09:21.781Z,100.00
2023-02-03T03:12:50.044Z,100.00
2023-02-03T03:16:17.809Z,100.00
2023-02-03T03:19:33.501Z,100.00
2023-02-03T03:23:01.384Z,100.00
2023-02-03T03:26:29.277Z,100.00
2023-02-03T03:29:57.187Z,100.00
2023-02-03T03:33:25.015Z,100.00
2023-02-03T03:36:48.552Z,100.00
2023-02-03T03:40:16.359Z,100.00
2023-02-03T03:43:24.290Z,100.00
2023-02-03T03:46:52.703Z,100.00
2023-02-03T03:50:02.853Z,100.00
2023-02-03T03:53:30.787Z,100.00
2023-02-03T03:56:58.814Z,100.00
2023-02-03T04:00:06.639Z,100.00
2023-02-03T04:03:35.338Z,100.00
2023-02-03T04:07:03.614Z,100.00
2023-02-03T04:10:12.555Z,100.00
2023-02-03T04:13:40.385Z,100.00
2023-02-03T04:16:55.984Z,100.00
2023-02-03T04:20:04.657Z,100.00
2023-02-03T04:23:12.974Z,100.00
2023-02-03T04:26:41.224Z,100.00
2023-02-03T04:29:49.889Z,100.00
2023-02-03T04:33:17.584Z,100.00
2023-02-03T04:36:25.235Z,100.00
2023-02-03T04:39:53.011Z,100.00
2023-02-03T04:43:02.869Z,100.00
2023-02-03T04:46:18.226Z,100.00
2023-02-03T04:49:27.145Z,100.00
2023-02-03T04:52:55.206Z,100.00
2023-02-03T04:56:23.187Z,100.00
2023-02-03T04:59:33.592Z,100.00
2023-02-03T05:02:43.423Z,100.00
2023-02-03T05:06:11.149Z,100.00
2023-02-03T05:09:20.805Z,100.00
2023-02-03T05:12:48.668Z,100.00
2023-02-03T05:16:16.530Z,100.00
2023-02-03T05:19:44.265Z,100.00
2023-02-03T05:23:12.111Z,100.00
2023-02-03T05:26:39.814Z,100.00
2023-02-03T05:29:48.056Z,100.00
2023-02-03T05:33:16.236Z,100.00
2023-02-03T05:36:44.198Z,100.00
2023-02-03T05:39:59.507Z,100.00
2023-02-03T05:43:08.181Z,100.00
2023-02-03T05:46:16.902Z,100.00
2023-02-03T05:49:44.779Z,100.00
2023-02-03T05:53:12.527Z,100.00
2023-02-03T05:56:40.152Z,100.00
2023-02-03T06:00:07.987Z,100.00
2023-02-03T06:03:36.228Z,100.00
2023-02-03T06:07:05.499Z,100.00
2023-02-03T06:10:32.708Z,100.00
2023-02-03T06:14:00.930Z,100.00
2023-02-03T06:17:30.633Z,100.00
2023-02-03T06:21:01.812Z,100.00
2023-02-03T06:23:51.056Z,100.00
2023-02-03T06:27:19.149Z,100.00
2023-02-03T06:30:27.662Z,100.00
2023-02-03T06:33:55.357Z,100.00
2023-02-03T06:37:24.859Z,100.00
2023-02-03T06:40:20.844Z,100.00
2023-02-03T06:43:48.658Z,100.00
2023-02-03T06:46:53.674Z,100.00
2023-02-03T06:50:21.753Z,100.00
2023-02-03T06:53:49.621Z,100.00
2023-02-03T06:57:06.065Z,100.00
2023-02-03T06:59:54.260Z,100.00
2023-02-03T07:02:43.068Z,100.00
2023-02-03T07:05:51.712Z,100.00
2023-02-03T07:09:01.794Z,100.00
2023-02-03T07:12:28.978Z,100.00
2023-02-03T07:15:56.703Z,100.00
2023-02-03T07:19:05.397Z,100.00
2023-02-03T07:22:29.630Z,100.00
2023-02-03T07:25:39.929Z,100.00
2023-02-03T07:29:07.975Z,100.00
2023-02-03T07:32:16.691Z,100.00
2023-02-03T07:35:44.603Z,100.00
2023-02-03T07:39:12.638Z,100.00
2023-02-03T07:42:19.653Z,100.00
2023-02-03T07:45:48.248Z,100.00
2023-02-03T07:48:57.176Z,100.00
2023-02-03T07:52:24.853Z,100.00
2023-02-03T07:55:52.470Z,100.00
2023-02-03T07:58:42.846Z,100.00
2023-02-03T08:01:50.824Z,100.00
2023-02-03T08:04:41.046Z,100.00
2023-02-03T08:07:57.023Z,100.00
2023-02-03T08:11:05.593Z,100.00
2023-02-03T08:14:33.716Z,100.00
2023-02-03T08:17:49.692Z,100.00
2023-02-03T08:20:38.498Z,100.00
2023-02-03T08:24:06.256Z,100.00
2023-02-03T08:27:34.026Z,100.00
2023-02-03T08:31:02.449Z,100.00
2023-02-03T08:34:30.172Z,100.00
2023-02-03T08:37:42.187Z,100.00
2023-02-03T08:40:32.057Z,100.00
2023-02-03T08:43:40.851Z,100.00
2023-02-03T08:47:08.911Z,100.00
2023-02-03T08:50:36.681Z,100.00
2023-02-03T08:53:45.041Z,100.00
2023-02-03T08:57:13.532Z,100.00
2023-02-03T09:00:41.547Z,100.00
2023-02-03T09:04:09.566Z,100.00
2023-02-03T09:07:37.230Z,100.00
2023-02-03T09:11:05.302Z,100.00
2023-02-03T09:14:33.042Z,100.00
2023-02-03T09:18:01.155Z,100.00
2023-02-03T09:21:33.851Z,100.00
2023-02-03T09:24:56.791Z,100.00
2023-02-03T09:28:24.620Z,100.00
2023-02-03T09:31:52.324Z,100.00
2023-02-03T09:35:04.070Z,100.00
2023-02-03T09:38:31.767Z,100.00
2023-02-03T09:41:42.088Z,100.00
2023-02-03T09:44:46.780Z,100.00
2023-02-03T09:47:34.886Z,100.00
2023-02-03T09:51:02.828Z,100.00
2023-02-03T09:54:12.493Z,100.00
2023-02-03T09:57:21.123Z,99.95
2023-02-03T10:00:30.269Z,100.00
2023-02-03T10:03:39.060Z,99.82
2023-02-03T10:06:47.226Z,98.09
2023-02-03T10:10:15.167Z,99.06
2023-02-03T10:13:42.843Z,96.22
2023-02-03T10:17:10.965Z,95.31
2023-02-03T10:20:22.569Z,95.58
2023-02-03T10:23:50.469Z,93.70
2023-02-03T10:27:18.739Z,94.09
2023-02-03T10:30:29.564Z,93.30
2023-02-03T10:33:57.108Z,88.29
2023-02-03T10:37:25.137Z,86.95
2023-02-03T10:40:52.920Z,86.88
2023-02-03T10:44:00.617Z,84.66
2023-02-03T10:47:28.462Z,83.90
2023-02-03T10:50:56.131Z,84.27
2023-02-03T10:54:23.821Z,82.38
2023-02-03T10:57:51.641Z,81.65
2023-02-03T11:01:19.449Z,81.05
2023-02-03T11:04:07.946Z,80.12
2023-02-03T11:06:56.332Z,78.55
2023-02-03T11:10:08.123Z,76.71
2023-02-03T11:13:31.511Z,77.88
2023-02-03T11:16:59.396Z,76.94
2023-02-03T11:20:27.542Z,75.77
2023-02-03T11:23:55.272Z,75.76
2023-02-03T11:27:18.969Z,73.59
2023-02-03T11:30:46.968Z,72.39
2023-02-03T11:33:55.005Z,72.23
2023-02-03T11:37:23.197Z,70.41
2023-02-03T11:40:15.601Z,66.51
2023-02-03T11:43:43.742Z,64.90
2023-02-03T11:47:11.425Z,62.82
2023-02-03T11:50:39.720Z,62.88
2023-02-03T11:54:03.872Z,64.60
2023-02-03T11:57:31.829Z,65.16
2023-02-03T12:00:59.631Z,64.79
2023-02-03T12:04:08.470Z,65.24
2023-02-03T12:07:36.180Z,65.62
2023-02-03T12:11:04.067Z,64.98
2023-02-03T12:14:32.235Z,65.27
2023-02-03T12:18:00.678Z,66.24
2023-02-03T12:21:28.791Z,67.07
2023-02-03T12:24:56.638Z,67.09
2023-02-03T12:27:45.495Z,66.72
2023-02-03T12:30:34.224Z,67.48
2023-02-03T12:34:01.940Z,67.35
2023-02-03T12:37:29.764Z,66.73
2023-02-03T12:40:57.619Z,67.83
2023-02-03T12:44:06.431Z,68.29
2023-02-03T12:47:14.295Z,69.31
2023-02-03T12:50:37.889Z,71.67
2023-02-03T12:53:48.064Z,72.64
2023-02-03T12:57:15.820Z,72.38
2023-02-03T13:00:43.702Z,72.24
2023-02-03T13:04:11.442Z,72.68
2023-02-03T13:07:39.212Z,72.81
2023-02-03T13:11:06.940Z,72.15
2023-02-03T13:14:34.761Z,72.59
2023-02-03T13:18:02.529Z,73.15
2023-02-03T13:21:30.696Z,73.85
2023-02-03T13:24:58.694Z,73.48
2023-02-03T13:28:26.403Z,73.09
2023-02-03T13:31:54.502Z,71.66
2023-02-03T13:35:32.343Z,70.52
2023-02-03T13:38:50.591Z,71.11
2023-02-03T13:42:18.436Z,71.78
2023-02-03T13:45:46.305Z,72.35
2023-02-03T13:49:14.141Z,73.88
2023-02-03T13:52:32.631Z,76.73
2023-02-03T13:55:48.378Z,78.07
2023-02-03T13:59:16.226Z,80.54
2023-02-03T14:02:04.893Z,82.76
2023-02-03T14:05:32.682Z,82.65
2023-02-03T14:08:56.533Z,81.84
2023-02-03T14:12:24.249Z,82.73
2023-02-03T14:15:52.289Z,84.21
2023-02-03T14:19:20.464Z,86.38
2023-02-03T14:22:48.425Z,88.08
2023-02-03T14:25:57.640Z,89.91
2023-02-03T14:29:07.697Z,92.49
2023-02-03T14:32:35.499Z,92.70
2023-02-03T14:35:44.230Z,94.20
2023-02-03T14:39:12.050Z,92.85
2023-02-03T14:42:39.876Z,92.54
2023-02-03T14:46:08.004Z,93.09
2023-02-03T14:49:31.148Z,92.15
2023-02-03T14:52:59.401Z,93.61
2023-02-03T14:56:27.382Z,94.52
2023-02-03T14:59:16.535Z,94.60
2023-02-03T15:02:24.730Z,96.10
2023-02-03T15:05:21.692Z,100.00
2023-02-03T15:08:49.692Z,100.00
2023-02-03T15:12:18.062Z,100.00
2023-02-03T15:15:45.986Z,100.00
2023-02-03T15:19:13.619Z,100.00
2023-02-03T15:22:26.195Z,100.00
2023-02-03T15:25:53.952Z,100.00
2023-02-03T15:29:03.371Z,100.00
2023-02-03T15:32:31.520Z,100.00
2023-02-03T15:35:59.592Z,100.00
2023-02-03T15:39:27.401Z,100.00
2023-02-03T15:42:37.345Z,100.00
2023-02-03T15:46:05.243Z,100.00
2023-02-03T15:49:13.131Z,100.00
2023-02-03T15:52:40.941Z,100.00
2023-02-03T15:56:08.724Z,100.00
2023-02-03T15:59:36.589Z,100.00
2023-02-03T16:03:04.529Z,100.00
2023-02-03T16:06:12.210Z,100.00
2023-02-03T16:09:20.785Z,100.00
2023-02-03T16:12:48.649Z,100.00
2023-02-03T16:16:16.655Z,100.00
2023-02-03T16:19:44.416Z,100.00
2023-02-03T16:23:12.104Z,100.00
2023-02-03T16:26:39.817Z,100.00
2023-02-03T16:30:07.865Z,100.00
2023-02-03T16:33:35.869Z,100.00
2023-02-03T16:37:03.677Z,100.00
2023-02-03T16:40:13.703Z,100.00
2023-02-03T16:43:23.359Z,100.00
2023-02-03T16:46:51.354Z,100.00
2023-02-03T16:50:32.751Z,100.00
2023-02-03T16:53:26.933Z,100.00
2023-02-03T16:56:55.098Z,100.00
2023-02-03T17:00:22.641Z,100.00
2023-02-03T17:03:50.674Z,100.00
2023-02-03T17:07:18.511Z,100.00
2023-02-03T17:10:28.304Z,100.00
2023-02-03T17:13:55.997Z,100.00
2023-02-03T17:17:23.847Z,100.00
2023-02-03T17:20:51.764Z,100.00
2023-02-03T17:24:19.491Z,100.00
2023-02-03T17:27:27.363Z,100.00
2023-02-03T17:30:55.478Z,100.00
2023-02-03T17:34:02.674Z,100.00
2023-02-03T17:37:30.486Z,100.00
2023-02-03T17:54:21.747Z,100.00
2023-02-03T17:57:45.656Z,100.00
2023-02-03T18:00:53.658Z,100.00
2023-02-03T18:04:21.510Z,100.00
2023-02-03T18:07:50.020Z,100.00
2023-02-03T18:11:17.410Z,100.00
2023-02-03T18:14:45.188Z,100.00
2023-02-03T18:18:13.011Z,100.00
2023-02-03T18:21:40.805Z,100.00
2023-02-03T18:25:08.435Z,100.00
2023-02-03T18:28:36.390Z,100.00
2023-02-03T18:32:04.324Z,100.00
2023-02-03T18:35:32.484Z,100.00
2023-02-03T18:39:00.329Z,100.00
2023-02-03T18:42:28.297Z,100.00
2023-02-03T18:45:55.955Z,100.00
2023-02-03T18:49:23.672Z,100.00
2023-02-03T18:52:35.470Z,100.00
2023-02-03T18:56:03.365Z,100.00
2023-02-03T18:59:31.096Z,100.00
2023-02-03T19:02:59.183Z,100.00
2023-02-03T19:06:06.804Z,100.00
2023-02-03T19:09:34.793Z,100.00
2023-02-03T19:13:02.547Z,100.00
2023-02-03T19:16:14.199Z,100.00
2023-02-03T19:19:23.841Z,100.00
2023-02-03T19:22:51.693Z,100.00
2023-02-03T19:26:19.917Z,100.00
2023-02-03T19:29:47.690Z,100.00
2023-02-03T19:33:15.772Z,100.00
2023-02-03T19:36:43.853Z,100.00
2023-02-03T19:40:11.723Z,100.00
2023-02-03T19:43:23.566Z,100.00
2023-02-03T19:46:51.594Z,100.00
2023-02-03T19:50:19.100Z,100.00
2023-02-03T19:53:46.710Z,100.00
2023-02-03T19:57:14.564Z,100.00
2023-02-03T19:59:50.812Z,100.00
2023-02-03T20:03:01.382Z,100.00
2023-02-03T20:06:30.741Z,100.00
2023-02-03T20:09:20.173Z,100.00
2023-02-03T20:12:07.331Z,100.00
2023-02-03T20:15:04.893Z,100.00
2023-02-03T20:17:56.733Z,100.00
2023-02-03T20:21:05.597Z,100.00
2023-02-03T20:24:10.735Z,100.00
2023-02-03T20:27:07.182Z,100.00
2023-02-03T20:30:16.795Z,100.00
2023-02-03T20:33:08.826Z,100.00
2023-02-03T20:36:13.271Z,100.00
2023-02-03T20:39:40.702Z,100.00
2023-02-03T20:42:52.316Z,100.00
2023-02-03T20:46:08.355Z,100.00
2023-02-03T20:48:57.112Z,100.00
2023-02-03T20:52:01.518Z,100.00
2023-02-03T20:55:29.118Z,100.00
2023-02-03T20:58:56.611Z,100.00
2023-02-03T21:02:06.408Z,100.00
2023-02-03T21:05:34.204Z,100.00
2023-02-03T21:08:45.609Z,100.00
2023-02-03T21:12:13.107Z,100.00
2023-02-03T21:15:21.833Z,100.00
2023-02-03T21:18:49.806Z,100.00
2023-02-03T21:22:17.674Z,100.00
2023-02-03T21:25:08.703Z,100.00
2023-02-03T21:28:36.579Z,100.00
2023-02-03T21:32:04.402Z,100.00
2023-02-03T21:34:54.309Z,100.00
2023-02-03T21:37:43.476Z,100.00
2023-02-03T21:40:33.726Z,100.00
2023-02-03T21:44:01.741Z,100.00
2023-02-03T21:47:29.616Z,100.00
2023-02-03T21:50:39.141Z,100.00
2023-02-03T21:54:07.013Z,100.00
2023-02-03T21:57:34.791Z,100.00
2023-02-03T22:00:24.907Z,100.00
2023-02-03T22:02:54.592Z,100.00
2023-02-03T22:06:22.222Z,100.00
2023-02-03T22:09:10.612Z,100.00
2023-02-03T22:12:38.381Z,100.00
2023-02-03T22:15:27.141Z,100.00
2023-02-03T22:18:38.976Z,100.00
2023-02-03T22:22:06.580Z,100.00
2023-02-03T22:24:35.612Z,100.00
2023-02-03T22:28:03.492Z,100.00
2023-02-03T22:30:52.385Z,100.00
2023-02-03T22:33:43.316Z,100.00
2023-02-03T22:36:54.871Z,100.00
2023-02-03T22:39:23.171Z,100.00
2023-02-03T22:42:50.343Z,100.00
2023-02-03T22:45:59.426Z,100.00
2023-02-03T22:49:08.607Z,100.00
2023-02-03T22:52:17.362Z,100.00
2023-02-03T22:55:45.800Z,100.00
2023-02-03T22:58:54.631Z,100.00
2023-02-03T23:01:23.531Z,100.00
2023-02-03T23:03:51.628Z,100.00
2023-02-03T23:06:19.979Z,100.00
2023-02-03T23:09:47.778Z,100.00
2023-02-03T23:12:56.839Z,100.00
2023-02-03T23:16:12.860Z,100.00
2023-02-03T23:19:08.627Z,100.00
2023-02-03T23:22:17.390Z,100.00
2023-02-03T23:25:26.562Z,100.00
2023-02-03T23:28:35.184Z,100.00
2023-02-03T23:31:25.097Z,100.00
2023-02-03T23:34:33.531Z,100.00
2023-02-03T23:38:02.435Z,100.00
2023-02-03T23:41:12.374Z,100.00
2023-02-03T23:44:21.926Z,100.00
2023-02-03T23:47:30.231Z,100.00
2023-02-03T23:49:58.501Z,100.00
2023-02-03T23:53:27.521Z,100.00
2023-02-03T23:56:35.620Z,100.00
